Time;durP1;ratioP1;P1;durP2;ratioP2;P2;SDS_P1;SDS_P2;PMS_P1;PMS_P2;Temp;Humidity;BMP_temperature;BMP_pressure;BME280_temperature;BME280_humidity;BME280_pressure;Samples;Min_cycle;Max_cycle;Signal;HPM_P1;HPM_P2
2022/08/06 00:02:05;;;;;;;;;;;22.10;99.90;;;;;;5033507;28;19908;-55
2022/08/06 00:04:30;;;;;;;;;;;22.20;99.90;;;;;;5039197;28;20030;-55
2022/08/06 00:06:57;;;;;;;;;;;22.10;99.90;;;;;;5052966;28;20387;-55
2022/08/06 00:09:22;;;;;;;;;;;22.10;99.90;;;;;;5052503;28;19995;-54
2022/08/06 00:11:48;;;;;;;;;;;21.80;99.90;;;;;;5052806;28;20008;-55
2022/08/06 00:14:14;;;;;;;;;;;21.70;99.90;;;;;;5052798;28;19956;-55
2022/08/06 00:16:39;;;;;;;;;;;21.80;99.90;;;;;;5052505;28;19908;-55
2022/08/06 00:19:05;;;;;;;;;;;21.70;99.90;;;;;;5044948;28;19912;-54
2022/08/06 00:21:31;;;;;;;;;;;21.70;99.90;;;;;;5041769;28;19962;-54
2022/08/06 00:23:56;;;;;;;;;;;21.70;99.90;;;;;;5041603;28;19917;-55
2022/08/06 00:26:24;;;;;;;;;;;21.80;99.90;;;;;;5041719;28;19967;-55
2022/08/06 00:28:50;;;;;;;;;;;21.60;99.90;;;;;;5047471;28;19917;-55
2022/08/06 00:31:15;;;;;;;;;;;21.60;99.90;;;;;;5038429;28;19905;-54
2022/08/06 00:33:41;;;;;;;;;;;21.50;99.90;;;;;;5037387;28;19924;-55
2022/08/06 00:36:07;;;;;;;;;;;21.20;99.90;;;;;;5036244;28;19911;-55
2022/08/06 00:38:33;;;;;;;;;;;21.20;99.90;;;;;;5036168;28;20352;-55
2022/08/06 00:40:59;;;;;;;;;;;21.20;99.90;;;;;;5038009;28;19911;-55
2022/08/06 00:43:25;;;;;;;;;;;21.10;99.90;;;;;;5038651;28;19913;-55
2022/08/06 00:45:51;;;;;;;;;;;21.20;99.90;;;;;;5036181;28;19916;-56
2022/08/06 00:48:16;;;;;;;;;;;21.20;99.90;;;;;;5028064;28;19913;-55
2022/08/06 00:50:42;;;;;;;;;;;21.00;99.90;;;;;;5036735;28;19905;-55
2022/08/06 00:53:08;;;;;;;;;;;20.90;99.90;;;;;;5036286;28;19905;-54
2022/08/06 00:55:34;;;;;;;;;;;20.90;99.90;;;;;;5035833;28;19916;-55
2022/08/06 00:57:59;;;;;;;;;;;21.00;99.90;;;;;;5037403;28;19908;-55
2022/08/06 01:00:25;;;;;;;;;;;21.00;99.90;;;;;;5040997;28;20283;-55
2022/08/06 01:02:50;;;;;;;;;;;21.10;99.90;;;;;;5051023;28;20362;-55
2022/08/06 01:05:16;;;;;;;;;;;21.00;99.90;;;;;;5051934;28;19905;-55
2022/08/06 01:07:42;;;;;;;;;;;21.10;99.90;;;;;;5051830;28;19912;-55
2022/08/06 01:10:07;;;;;;;;;;;21.20;99.90;;;;;;5051870;28;20355;-55
2022/08/06 01:12:33;;;;;;;;;;;21.20;99.90;;;;;;5052074;28;20315;-54
2022/08/06 01:14:58;;;;;;;;;;;21.20;99.90;;;;;;5051809;28;20661;-55
2022/08/06 01:17:27;;;;;;;;;;;21.30;99.90;;;;;;5051753;28;20091;-55
2022/08/06 01:19:52;;;;;;;;;;;21.30;99.90;;;;;;5051582;28;19913;-55
2022/08/06 01:22:18;;;;;;;;;;;21.30;99.90;;;;;;5051689;28;20256;-55
2022/08/06 01:25:02;;;;;;;;;;;21.30;99.90;;;;;;5051945;28;20450;-55
2022/08/06 01:27:31;;;;;;;;;;;21.30;99.90;;;;;;5051952;28;19911;-55
2022/08/06 01:30:00;;;;;;;;;;;21.30;99.90;;;;;;5051614;28;19913;-55
2022/08/06 01:32:28;;;;;;;;;;;21.30;99.90;;;;;;5051531;28;20030;-55
2022/08/06 01:35:05;;;;;;;;;;;21.40;99.90;;;;;;5051500;28;19994;-55
2022/08/06 01:37:52;;;;;;;;;;;21.40;99.90;;;;;;5051666;28;19931;-54
2022/08/06 01:40:19;;;;;;;;;;;21.40;99.90;;;;;;5051431;28;19912;-55
2022/08/06 01:42:45;;;;;;;;;;;21.50;99.90;;;;;;5051372;28;20011;-55
2022/08/06 01:45:13;;;;;;;;;;;21.50;99.90;;;;;;5051504;28;20003;-54
2022/08/06 01:47:40;;;;;;;;;;;21.50;99.90;;;;;;5051125;28;19919;-55
2022/08/06 01:50:06;;;;;;;;;;;21.50;99.90;;;;;;5051384;28;19913;-55
2022/08/06 01:52:37;;;;;;;;;;;21.60;99.90;;;;;;5051517;28;19950;-55
2022/08/06 01:55:06;;;;;;;;;;;21.70;99.90;;;;;;5042774;28;19940;-55
2022/08/06 01:57:33;;;;;;;;;;;21.70;99.90;;;;;;5050938;28;19911;-55
2022/08/06 02:00:00;;;;;;;;;;;21.70;99.90;;;;;;5036729;28;20356;-55
2022/08/06 02:02:28;;;;;;;;;;;21.70;99.90;;;;;;5023638;28;19988;-55
2022/08/06 02:04:55;;;;;;;;;;;21.70;99.90;;;;;;5011270;28;19913;-55
2022/08/06 02:07:23;;;;;;;;;;;21.70;99.90;;;;;;5011337;28;19909;-55
2022/08/06 02:09:50;;;;;;;;;;;21.80;99.90;;;;;;5011068;28;19909;-55
2022/08/06 02:12:20;;;;;;;;;;;21.80;99.90;;;;;;5011259;28;19999;-55
2022/08/06 02:14:48;;;;;;;;;;;21.70;99.90;;;;;;5010869;28;19948;-55
2022/08/06 02:17:15;;;;;;;;;;;21.70;99.90;;;;;;5011044;28;19920;-55
2022/08/06 02:19:43;;;;;;;;;;;21.70;99.90;;;;;;5009568;28;19912;-55
2022/08/06 02:22:09;;;;;;;;;;;21.80;99.90;;;;;;5010990;28;19971;-55
2022/08/06 02:24:35;;;;;;;;;;;21.70;99.90;;;;;;5010619;28;20352;-55
2022/08/06 02:27:01;;;;;;;;;;;21.80;99.90;;;;;;5010825;28;19905;-55
2022/08/06 02:29:27;;;;;;;;;;;21.70;99.90;;;;;;5010889;28;19917;-53
2022/08/06 02:31:53;;;;;;;;;;;21.70;99.90;;;;;;5010839;28;19914;-54
2022/08/06 02:34:20;;;;;;;;;;;21.80;99.90;;;;;;5010723;28;19958;-55
2022/08/06 02:36:49;;;;;;;;;;;21.70;99.90;;;;;;5010803;28;19905;-55
2022/08/06 02:39:26;;;;;;;;;;;21.70;99.90;;;;;;5010643;28;19920;-55
2022/08/06 02:42:10;;;;;;;;;;;21.70;99.90;;;;;;5010424;28;19941;-55
2022/08/06 02:44:36;;;;;;;;;;;21.70;99.90;;;;;;5010699;28;19917;-54
2022/08/06 02:47:21;;;;;;;;;;;21.70;99.90;;;;;;5009561;28;20274;-55
2022/08/06 02:49:49;;;;;;;;;;;21.70;99.90;;;;;;5010062;28;19913;-55
2022/08/06 02:52:15;;;;;;;;;;;21.70;99.90;;;;;;5010408;28;19913;-55
2022/08/06 02:54:43;;;;;;;;;;;21.70;99.90;;;;;;5010167;28;19921;-54
2022/08/06 02:57:16;;;;;;;;;;;21.70;99.90;;;;;;5010507;28;20003;-55
2022/08/06 02:59:46;;;;;;;;;;;21.60;99.90;;;;;;5013887;28;19921;-55
2022/08/06 03:02:14;;;;;;;;;;;21.70;99.90;;;;;;5029752;28;19909;-54
2022/08/06 03:04:41;;;;;;;;;;;21.60;99.90;;;;;;5029957;28;20252;-55
2022/08/06 03:07:08;;;;;;;;;;;21.60;99.90;;;;;;5030127;28;19978;-55
2022/08/06 03:09:35;;;;;;;;;;;21.60;99.90;;;;;;5029936;28;19913;-55
2022/08/06 03:12:01;;;;;;;;;;;21.60;99.90;;;;;;5029549;28;20004;-55
2022/08/06 03:14:27;;;;;;;;;;;21.60;99.90;;;;;;5030069;28;19992;-54
2022/08/06 03:16:53;;;;;;;;;;;21.60;99.90;;;;;;5029789;28;20042;-55
2022/08/06 03:19:20;;;;;;;;;;;21.50;99.90;;;;;;5029662;28;19909;-55
2022/08/06 03:21:46;;;;;;;;;;;21.50;99.90;;;;;;5029734;28;19905;-55
2022/08/06 03:24:13;;;;;;;;;;;21.50;99.90;;;;;;5029790;28;20236;-55
2022/08/06 03:26:39;;;;;;;;;;;21.50;99.90;;;;;;5029489;28;19909;-55
2022/08/06 03:29:05;;;;;;;;;;;21.50;99.90;;;;;;5025121;28;20395;-54
2022/08/06 03:31:31;;;;;;;;;;;21.50;99.90;;;;;;5025882;28;19905;-54
2022/08/06 03:33:57;;;;;;;;;;;21.50;99.90;;;;;;5029567;28;19916;-55
2022/08/06 03:36:23;;;;;;;;;;;21.50;99.90;;;;;;5029667;28;19905;-54
2022/08/06 03:38:50;;;;;;;;;;;21.50;99.90;;;;;;5029648;28;20304;-55
2022/08/06 03:41:16;;;;;;;;;;;21.50;99.90;;;;;;5029538;28;19916;-55
2022/08/06 03:43:42;;;;;;;;;;;21.60;99.90;;;;;;5029435;28;19905;-55
2022/08/06 03:46:07;;;;;;;;;;;21.60;99.90;;;;;;5029236;28;19905;-55
2022/08/06 03:48:36;;;;;;;;;;;21.60;99.90;;;;;;5029486;28;19943;-55
2022/08/06 03:51:04;;;;;;;;;;;21.60;99.90;;;;;;5024961;28;20035;-55
2022/08/06 03:53:34;;;;;;;;;;;21.60;99.90;;;;;;5025839;28;19909;-54
2022/08/06 03:56:00;;;;;;;;;;;21.60;99.90;;;;;;5029046;28;19923;-55
2022/08/06 03:58:26;;;;;;;;;;;21.60;99.90;;;;;;5029403;28;19933;-55
2022/08/06 04:00:58;;;;;;;;;;;21.60;99.90;;;;;;5029145;28;19944;-55
2022/08/06 04:03:24;;;;;;;;;;;21.60;99.90;;;;;;5024642;28;20004;-55
2022/08/06 04:05:50;;;;;;;;;;;21.60;99.90;;;;;;5028313;28;20024;-55
2022/08/06 04:08:16;;;;;;;;;;;21.60;99.90;;;;;;5029373;28;20430;-55
2022/08/06 04:10:47;;;;;;;;;;;21.60;99.90;;;;;;5029452;28;20413;-54
2022/08/06 04:13:14;;;;;;;;;;;21.60;99.90;;;;;;5029210;28;19905;-54
2022/08/06 04:15:41;;;;;;;;;;;21.60;99.90;;;;;;5029213;28;19909;-55
2022/08/06 04:18:08;;;;;;;;;;;21.70;99.90;;;;;;5031964;28;19909;-55
2022/08/06 04:20:34;;;;;;;;;;;21.70;99.90;;;;;;5011933;28;19912;-55
2022/08/06 04:23:00;;;;;;;;;;;21.70;99.90;;;;;;5032813;28;19909;-55
2022/08/06 04:25:27;;;;;;;;;;;21.70;99.90;;;;;;5032510;28;19909;-55
2022/08/06 04:27:53;;;;;;;;;;;21.70;99.90;;;;;;5032773;28;19909;-54
2022/08/06 04:30:18;;;;;;;;;;;21.70;99.90;;;;;;5032801;28;19905;-55
2022/08/06 04:32:44;;;;;;;;;;;21.70;99.90;;;;;;5032486;28;19920;-55
2022/08/06 04:35:11;;;;;;;;;;;21.60;99.90;;;;;;5032569;28;19908;-55
2022/08/06 04:37:37;;;;;;;;;;;21.70;99.90;;;;;;5032167;28;19909;-55
2022/08/06 04:40:03;;;;;;;;;;;21.70;99.90;;;;;;5032568;28;19916;-55
2022/08/06 04:42:29;;;;;;;;;;;21.60;99.90;;;;;;5032668;28;20018;-55
2022/08/06 04:44:54;;;;;;;;;;;21.60;99.90;;;;;;5032672;28;20555;-55
2022/08/06 04:47:20;;;;;;;;;;;21.60;99.90;;;;;;5032843;28;19909;-55
2022/08/06 04:49:46;;;;;;;;;;;21.70;99.90;;;;;;5032292;28;19917;-55
2022/08/06 04:52:22;;;;;;;;;;;21.60;99.90;;;;;;5032709;28;19909;-54
2022/08/06 04:54:47;;;;;;;;;;;21.70;99.90;;;;;;5032173;28;19909;-55
2022/08/06 04:57:13;;;;;;;;;;;21.70;99.90;;;;;;5032443;28;19905;-55
2022/08/06 04:59:38;;;;;;;;;;;21.70;99.90;;;;;;5014978;28;19917;-55
2022/08/06 05:02:04;;;;;;;;;;;21.70;99.90;;;;;;5052247;28;19999;-55
2022/08/06 05:04:29;;;;;;;;;;;21.70;99.90;;;;;;5051649;28;19939;-55
2022/08/06 05:06:59;;;;;;;;;;;21.70;99.90;;;;;;5052159;28;19970;-55
2022/08/06 05:09:26;;;;;;;;;;;21.80;99.90;;;;;;5051899;28;19964;-55
2022/08/06 05:11:59;;;;;;;;;;;21.80;99.90;;;;;;5051932;28;19944;-54
2022/08/06 05:14:48;;;;;;;;;;;21.90;99.90;;;;;;5051713;28;19912;-55
2022/08/06 05:17:15;;;;;;;;;;;21.90;99.90;;;;;;5052105;28;19957;-55
2022/08/06 05:19:49;;;;;;;;;;;22.00;99.90;;;;;;5045526;28;20309;-55
2022/08/06 05:22:16;;;;;;;;;;;22.00;99.90;;;;;;5007588;28;20367;-55
2022/08/06 05:24:41;;;;;;;;;;;22.00;99.90;;;;;;5048395;28;19995;-55
2022/08/06 05:27:09;;;;;;;;;;;22.00;99.90;;;;;;5048715;28;20020;-54
2022/08/06 05:29:35;;;;;;;;;;;22.00;99.90;;;;;;5031725;28;20016;-55
2022/08/06 05:32:01;;;;;;;;;;;22.00;99.90;;;;;;5036728;28;19920;-55
2022/08/06 05:34:27;;;;;;;;;;;22.00;99.90;;;;;;5046680;28;19943;-55
2022/08/06 05:36:52;;;;;;;;;;;22.00;99.90;;;;;;5049136;28;20320;-55
2022/08/06 05:39:19;;;;;;;;;;;22.00;99.90;;;;;;5037179;28;19909;-55
2022/08/06 05:41:45;;;;;;;;;;;22.10;99.90;;;;;;5039969;28;19962;-55
2022/08/06 05:44:11;;;;;;;;;;;21.90;99.90;;;;;;5044846;28;19912;-55
2022/08/06 05:46:40;;;;;;;;;;;21.90;99.90;;;;;;5034533;28;20344;-55
2022/08/06 05:49:07;;;;;;;;;;;21.90;99.90;;;;;;5043415;28;20606;-55
2022/08/06 05:51:43;;;;;;;;;;;21.80;99.90;;;;;;5042242;28;19915;-54
2022/08/06 05:54:27;;;;;;;;;;;21.90;99.90;;;;;;5031107;28;19921;-54
2022/08/06 05:56:58;;;;;;;;;;;21.90;99.90;;;;;;5031376;28;19913;-54
2022/08/06 05:59:26;;;;;;;;;;;21.90;99.90;;;;;;5030722;28;20368;-55
2022/08/06 06:01:51;;;;;;;;;;;21.90;99.90;;;;;;5031431;28;19909;-54
2022/08/06 06:04:18;;;;;;;;;;;22.00;99.90;;;;;;5030707;28;19982;-54
2022/08/06 06:06:44;;;;;;;;;;;22.00;99.90;;;;;;5031210;28;19915;-54
2022/08/06 06:09:10;;;;;;;;;;;21.90;99.90;;;;;;5030476;28;20295;-55
2022/08/06 06:11:36;;;;;;;;;;;22.00;99.90;;;;;;5029538;28;20034;-54
2022/08/06 06:14:02;;;;;;;;;;;21.90;99.90;;;;;;5030629;28;19955;-55
2022/08/06 06:16:31;;;;;;;;;;;21.90;99.90;;;;;;5030800;28;19948;-55
2022/08/06 06:18:59;;;;;;;;;;;21.90;99.90;;;;;;5042273;28;19969;-55
2022/08/06 06:21:28;;;;;;;;;;;22.00;99.90;;;;;;5050822;28;19974;-54
2022/08/06 06:24:09;;;;;;;;;;;21.90;99.90;;;;;;5050163;28;19912;-55
2022/08/06 06:26:50;;;;;;;;;;;22.00;99.90;;;;;;5050243;28;19959;-54
2022/08/06 06:29:15;;;;;;;;;;;21.90;99.90;;;;;;5050485;28;19917;-54
2022/08/06 06:32:01;;;;;;;;;;;21.80;99.90;;;;;;5050464;28;19915;-55
2022/08/06 06:34:49;;;;;;;;;;;21.80;99.90;;;;;;5050162;28;20524;-55
2022/08/06 06:37:41;;;;;;;;;;;21.80;99.90;;;;;;5050209;28;19919;-54
2022/08/06 06:40:18;;;;;;;;;;;21.80;99.90;;;;;;5025769;28;19931;-56
2022/08/06 06:42:48;;;;;;;;;;;21.80;99.90;;;;;;5046269;28;19904;-54
2022/08/06 06:45:16;;;;;;;;;;;21.80;99.90;;;;;;5049691;28;19935;-55
2022/08/06 06:47:45;;;;;;;;;;;21.70;99.90;;;;;;5030686;28;19905;-55
2022/08/06 06:50:17;;;;;;;;;;;21.60;99.90;;;;;;5033550;28;19920;-54
2022/08/06 06:52:44;;;;;;;;;;;21.70;99.90;;;;;;5034641;28;19905;-54
2022/08/06 06:55:11;;;;;;;;;;;21.60;99.90;;;;;;5034520;28;19909;-54
2022/08/06 06:57:38;;;;;;;;;;;21.50;99.90;;;;;;5030086;28;19913;-54
2022/08/06 07:00:05;;;;;;;;;;;21.40;99.90;;;;;;5033786;28;20407;-54
2022/08/06 07:02:32;;;;;;;;;;;21.50;99.90;;;;;;5030331;28;19966;-56
2022/08/06 07:05:02;;;;;;;;;;;21.30;99.90;;;;;;5032106;28;20268;-55
2022/08/06 07:07:30;;;;;;;;;;;21.30;99.90;;;;;;5039857;28;19955;-56
2022/08/06 07:09:56;;;;;;;;;;;21.00;99.90;;;;;;5049832;28;19920;-56
2022/08/06 07:12:22;;;;;;;;;;;20.80;99.90;;;;;;5049538;28;20790;-57
2022/08/06 07:14:50;;;;;;;;;;;20.70;99.90;;;;;;5049491;28;19912;-56
2022/08/06 07:17:18;;;;;;;;;;;20.50;99.90;;;;;;5038170;28;19920;-55
2022/08/06 07:19:45;;;;;;;;;;;20.30;99.90;;;;;;5029868;28;19928;-57
2022/08/06 07:22:11;;;;;;;;;;;20.20;99.90;;;;;;5029768;28;19909;-56
2022/08/06 07:24:37;;;;;;;;;;;20.00;99.90;;;;;;5029534;28;20001;-56
2022/08/06 07:27:03;;;;;;;;;;;19.90;99.90;;;;;;5029347;28;20352;-57
2022/08/06 07:29:29;;;;;;;;;;;19.70;99.90;;;;;;5029902;28;20597;-56
2022/08/06 07:31:55;;;;;;;;;;;19.60;99.90;;;;;;5029779;28;19916;-56
2022/08/06 07:34:22;;;;;;;;;;;19.60;99.90;;;;;;5042144;28;19978;-56
2022/08/06 07:36:50;;;;;;;;;;;19.40;99.90;;;;;;5033554;28;20318;-56
2022/08/06 07:39:21;;;;;;;;;;;19.30;99.90;;;;;;5032023;28;19909;-56
2022/08/06 07:41:49;;;;;;;;;;;19.20;99.90;;;;;;5024792;28;19905;-56
2022/08/06 07:44:15;;;;;;;;;;;19.30;99.90;;;;;;5029394;28;19908;-55
2022/08/06 07:46:43;;;;;;;;;;;19.30;99.90;;;;;;5028948;28;19924;-56
2022/08/06 07:49:11;;;;;;;;;;;19.30;99.90;;;;;;5029624;28;20006;-55
2022/08/06 07:51:38;;;;;;;;;;;19.30;99.90;;;;;;5030100;28;19916;-54
2022/08/06 07:54:05;;;;;;;;;;;19.30;99.90;;;;;;5015499;28;19924;-55
2022/08/06 07:56:32;;;;;;;;;;;19.20;99.90;;;;;;5031968;28;19947;-54
2022/08/06 07:58:57;;;;;;;;;;;19.30;99.90;;;;;;5032408;28;19908;-55
2022/08/06 08:01:27;;;;;;;;;;;19.20;99.90;;;;;;5015126;28;19971;-55
2022/08/06 08:06:37;;;;;;;;;;;19.10;99.90;;;;;;5031706;28;19911;-55
2022/08/06 08:09:13;;;;;;;;;;;19.10;99.90;;;;;;5033128;28;19917;-55
2022/08/06 08:11:40;;;;;;;;;;;18.90;99.90;;;;;;5033123;28;20012;-55
2022/08/06 08:14:07;;;;;;;;;;;18.90;99.90;;;;;;5031694;28;19909;-55
2022/08/06 08:16:33;;;;;;;;;;;18.90;99.90;;;;;;5038920;28;20306;-56
2022/08/06 08:18:58;;;;;;;;;;;18.90;99.90;;;;;;5044510;28;20352;-56
2022/08/06 08:21:25;;;;;;;;;;;18.80;99.90;;;;;;5052284;28;19909;-56
2022/08/06 08:23:51;;;;;;;;;;;18.90;99.90;;;;;;5052697;28;20662;-56
2022/08/06 08:26:16;;;;;;;;;;;18.90;99.90;;;;;;5052208;28;19912;-57
2022/08/06 08:28:42;;;;;;;;;;;18.90;99.90;;;;;;5051323;28;19912;-56
2022/08/06 08:31:08;;;;;;;;;;;18.90;99.90;;;;;;5052913;28;20451;-57
2022/08/06 08:33:34;;;;;;;;;;;18.90;99.90;;;;;;5052519;28;20046;-56
2022/08/06 08:36:00;;;;;;;;;;;19.00;99.90;;;;;;5052473;28;20378;-56
2022/08/06 08:38:30;;;;;;;;;;;18.90;99.90;;;;;;5052592;28;19943;-55
2022/08/06 08:40:58;;;;;;;;;;;18.90;99.90;;;;;;5052571;28;20027;-52
2022/08/06 08:43:29;;;;;;;;;;;18.90;99.90;;;;;;5052477;28;19955;-53
2022/08/06 08:45:56;;;;;;;;;;;18.90;99.90;;;;;;5052062;28;19912;-53
2022/08/06 08:48:24;;;;;;;;;;;18.90;99.90;;;;;;5052294;28;19920;-53
2022/08/06 08:50:50;;;;;;;;;;;19.00;99.90;;;;;;5052397;28;20394;-53
2022/08/06 08:53:22;;;;;;;;;;;19.00;99.90;;;;;;5052110;28;19984;-54
2022/08/06 08:55:47;;;;;;;;;;;19.00;99.90;;;;;;5051952;28;19908;-54
2022/08/06 08:58:14;;;;;;;;;;;19.00;99.90;;;;;;5051991;28;19991;-54
2022/08/06 09:00:40;;;;;;;;;;;19.00;99.90;;;;;;5052008;28;19920;-53
2022/08/06 09:03:06;;;;;;;;;;;19.00;99.90;;;;;;5051814;28;19981;-53
2022/08/06 09:05:33;;;;;;;;;;;18.90;99.90;;;;;;5051663;28;19983;-53
2022/08/06 09:07:59;;;;;;;;;;;19.00;99.90;;;;;;5051931;28;19915;-53
2022/08/06 09:10:25;;;;;;;;;;;18.90;99.90;;;;;;5052152;28;19972;-53
2022/08/06 09:12:50;;;;;;;;;;;19.00;99.90;;;;;;5050446;28;19915;-55
2022/08/06 09:15:16;;;;;;;;;;;19.00;99.90;;;;;;5051617;28;19909;-55
2022/08/06 09:17:42;;;;;;;;;;;19.00;99.90;;;;;;5051810;28;20429;-54
2022/08/06 09:20:08;;;;;;;;;;;18.90;99.90;;;;;;5052172;28;19987;-54
2022/08/06 09:22:33;;;;;;;;;;;18.90;99.90;;;;;;5051826;28;20364;-54
2022/08/06 09:25:00;;;;;;;;;;;18.90;99.90;;;;;;5051600;28;19915;-54
2022/08/06 09:27:32;;;;;;;;;;;18.90;99.90;;;;;;5051240;28;19905;-54
2022/08/06 09:29:59;;;;;;;;;;;18.90;99.90;;;;;;5051785;28;19951;-53
2022/08/06 09:32:43;;;;;;;;;;;18.90;99.90;;;;;;5051810;28;19905;-53
2022/08/06 09:35:15;;;;;;;;;;;18.90;99.90;;;;;;5051582;28;19908;-54
2022/08/06 09:37:40;;;;;;;;;;;18.90;99.90;;;;;;5051254;28;19909;-53
2022/08/06 09:40:32;;;;;;;;;;;18.70;99.90;;;;;;5051491;28;19904;-53
2022/08/06 09:42:57;;;;;;;;;;;18.70;99.90;;;;;;5040889;28;19905;-54
2022/08/06 09:45:24;;;;;;;;;;;18.70;99.90;;;;;;5051346;28;19959;-53
2022/08/06 09:48:03;;;;;;;;;;;18.80;99.90;;;;;;5043438;28;19912;-53
2022/08/06 09:50:39;;;;;;;;;;;18.80;99.90;;;;;;5031474;28;19912;-54
2022/08/06 09:53:05;;;;;;;;;;;18.70;99.90;;;;;;5031327;28;19948;-54
2022/08/06 09:55:31;;;;;;;;;;;18.70;99.90;;;;;;5031203;28;19956;-54
2022/08/06 09:57:56;;;;;;;;;;;18.50;99.90;;;;;;5029509;28;20327;-54
2022/08/06 10:00:26;;;;;;;;;;;18.50;99.90;;;;;;5013121;28;20384;-54
2022/08/06 10:02:58;;;;;;;;;;;18.50;99.90;;;;;;5031055;28;19992;-54
2022/08/06 10:05:24;;;;;;;;;;;18.50;99.90;;;;;;5030798;28;19916;-54
2022/08/06 10:08:06;;;;;;;;;;;18.50;99.90;;;;;;5031009;28;19975;-53
2022/08/06 10:10:38;;;;;;;;;;;18.40;99.90;;;;;;5031027;28;19924;-53
2022/08/06 10:13:11;;;;;;;;;;;18.40;99.90;;;;;;5012910;28;20356;-53
2022/08/06 10:15:37;;;;;;;;;;;18.40;99.90;;;;;;5029837;28;19905;-53
2022/08/06 10:18:02;;;;;;;;;;;18.30;99.90;;;;;;5030821;28;19909;-53
2022/08/06 10:20:28;;;;;;;;;;;18.20;99.90;;;;;;5030832;28;20670;-54
2022/08/06 10:22:56;;;;;;;;;;;18.30;99.90;;;;;;5030783;28;19963;-54
2022/08/06 10:25:22;;;;;;;;;;;18.30;99.90;;;;;;5030689;28;20301;-54
2022/08/06 10:27:49;;;;;;;;;;;18.30;99.90;;;;;;5030261;28;20031;-55
2022/08/06 10:30:14;;;;;;;;;;;18.20;99.90;;;;;;5030698;28;20351;-54
2022/08/06 10:32:45;;;;;;;;;;;18.20;99.90;;;;;;5030635;28;19916;-54
2022/08/06 10:35:13;;;;;;;;;;;18.10;99.90;;;;;;5030399;28;20710;-54
2022/08/06 10:37:43;;;;;;;;;;;18.10;99.90;;;;;;5030689;28;20276;-54
2022/08/06 10:40:09;;;;;;;;;;;18.10;99.90;;;;;;5012533;28;19909;-53
2022/08/06 10:42:35;;;;;;;;;;;18.00;99.90;;;;;;5030461;28;19904;-53
2022/08/06 10:45:01;;;;;;;;;;;18.00;99.90;;;;;;5030428;28;19915;-54
2022/08/06 10:47:27;;;;;;;;;;;18.00;99.90;;;;;;5030400;28;20570;-54
2022/08/06 10:49:53;;;;;;;;;;;18.10;99.90;;;;;;5030225;28;20008;-53
2022/08/06 10:52:19;;;;;;;;;;;18.10;99.90;;;;;;5030459;28;19905;-54
2022/08/06 10:54:45;;;;;;;;;;;18.10;99.90;;;;;;5029943;28;20422;-54
2022/08/06 10:57:13;;;;;;;;;;;18.10;99.90;;;;;;5029964;28;19928;-54
2022/08/06 10:59:40;;;;;;;;;;;18.00;99.90;;;;;;5021682;28;19940;-54
2022/08/06 11:02:32;;;;;;;;;;;18.00;99.90;;;;;;5030298;28;20105;-54
2022/08/06 11:04:59;;;;;;;;;;;17.90;99.90;;;;;;5029893;28;19909;-54
2022/08/06 11:07:36;;;;;;;;;;;17.90;99.90;;;;;;5030123;28;19962;-53
2022/08/06 11:10:11;;;;;;;;;;;17.80;99.90;;;;;;5030426;28;19921;-54
2022/08/06 11:12:43;;;;;;;;;;;17.80;99.90;;;;;;5030269;28;19927;-54
2022/08/06 11:15:09;;;;;;;;;;;17.80;99.90;;;;;;5030336;28;19909;-54
2022/08/06 11:17:45;;;;;;;;;;;17.90;99.90;;;;;;5030264;28;19909;-54
2022/08/06 11:20:29;;;;;;;;;;;17.90;99.90;;;;;;5030012;28;19995;-53
2022/08/06 11:22:55;;;;;;;;;;;17.80;99.90;;;;;;5030065;28;19987;-54
2022/08/06 11:25:37;;;;;;;;;;;17.90;99.90;;;;;;5030281;28;20356;-54
2022/08/06 11:28:04;;;;;;;;;;;17.70;99.90;;;;;;5012531;28;19927;-54
2022/08/06 11:30:48;;;;;;;;;;;17.70;99.90;;;;;;5029808;28;19979;-54
2022/08/06 11:33:17;;;;;;;;;;;17.80;99.90;;;;;;5030140;28;19940;-54
2022/08/06 11:35:45;;;;;;;;;;;17.90;99.90;;;;;;5030102;28;19909;-55
2022/08/06 11:38:12;;;;;;;;;;;17.90;99.90;;;;;;5030114;28;19909;-55
2022/08/06 11:40:57;;;;;;;;;;;17.80;99.90;;;;;;5030135;28;19905;-54
2022/08/06 11:43:42;;;;;;;;;;;17.80;99.90;;;;;;5030244;28;19909;-54
2022/08/06 11:46:17;;;;;;;;;;;17.80;99.90;;;;;;5030013;28;19905;-54
2022/08/06 11:48:58;;;;;;;;;;;17.80;99.90;;;;;;5029884;28;19913;-55
2022/08/06 11:51:42;;;;;;;;;;;17.90;99.90;;;;;;5029850;28;19916;-54
2022/08/06 11:54:08;;;;;;;;;;;17.80;99.90;;;;;;5030252;28;20004;-53
2022/08/06 11:56:34;;;;;;;;;;;17.80;99.90;;;;;;5029887;28;19992;-54
2022/08/06 11:59:12;;;;;;;;;;;17.70;99.90;;;;;;5029787;28;19963;-54
2022/08/06 12:01:45;;;;;;;;;;;17.70;99.90;;;;;;5029486;28;19924;-53
2022/08/06 12:04:30;;;;;;;;;;;17.80;99.90;;;;;;5030115;28;19916;-53
2022/08/06 12:07:14;;;;;;;;;;;17.80;99.90;;;;;;5029865;28;19913;-53
2022/08/06 12:09:40;;;;;;;;;;;17.80;99.90;;;;;;5029601;28;19913;-53
2022/08/06 12:12:38;;;;;;;;;;;17.90;99.90;;;;;;5011811;28;19913;-53
2022/08/06 12:15:30;;;;;;;;;;;17.80;99.90;;;;;;4985202;28;19979;-56
2022/08/06 12:17:57;;;;;;;;;;;17.80;99.90;;;;;;5026122;28;20000;-53
2022/08/06 12:20:30;;;;;;;;;;;17.70;99.90;;;;;;5028089;28;20459;-53
2022/08/06 12:22:57;;;;;;;;;;;17.60;99.90;;;;;;5028090;28;19913;-53
2022/08/06 12:25:29;;;;;;;;;;;17.60;99.90;;;;;;5029519;28;19996;-54
2022/08/06 12:27:56;;;;;;;;;;;17.60;99.90;;;;;;5029486;28;20280;-53
2022/08/06 12:30:21;;;;;;;;;;;17.60;99.90;;;;;;5029597;28;19913;-53
2022/08/06 12:32:47;;;;;;;;;;;17.60;99.90;;;;;;5029807;28;20006;-53
2022/08/06 12:35:12;;;;;;;;;;;17.70;99.90;;;;;;5029269;28;19905;-53
2022/08/06 12:37:39;;;;;;;;;;;17.70;99.90;;;;;;5029886;28;19916;-53
2022/08/06 12:40:26;;;;;;;;;;;17.70;99.90;;;;;;5032892;28;19960;-53
2022/08/06 12:42:52;;;;;;;;;;;17.80;99.90;;;;;;5017755;28;19908;-54
2022/08/06 12:45:22;;;;;;;;;;;17.70;99.90;;;;;;5032688;28;19913;-53
2022/08/06 12:47:57;;;;;;;;;;;17.70;99.90;;;;;;5033163;28;19932;-55
2022/08/06 12:50:22;;;;;;;;;;;17.80;99.90;;;;;;5032666;28;19913;-55
2022/08/06 12:53:03;;;;;;;;;;;17.80;99.90;;;;;;5033110;28;19912;-55
2022/08/06 12:55:29;;;;;;;;;;;17.80;99.90;;;;;;5032201;28;19905;-55
2022/08/06 12:57:56;;;;;;;;;;;17.80;99.90;;;;;;5032421;28;19904;-55
2022/08/06 13:00:21;;;;;;;;;;;17.80;99.90;;;;;;5027821;28;20016;-55
2022/08/06 13:02:48;;;;;;;;;;;17.80;99.90;;;;;;5030956;28;20308;-55
2022/08/06 13:05:14;;;;;;;;;;;17.80;99.90;;;;;;5032345;28;19959;-55
2022/08/06 13:07:40;;;;;;;;;;;17.80;99.90;;;;;;5032372;28;19909;-55
2022/08/06 13:10:09;;;;;;;;;;;17.90;99.90;;;;;;5032515;28;19917;-55
2022/08/06 13:12:35;;;;;;;;;;;17.90;99.90;;;;;;5032066;28;19913;-55
2022/08/06 13:15:09;;;;;;;;;;;17.90;99.90;;;;;;5031947;28;19959;-55
2022/08/06 13:17:35;;;;;;;;;;;17.90;99.90;;;;;;5032459;28;19909;-55
2022/08/06 13:20:01;;;;;;;;;;;17.90;99.90;;;;;;5032690;28;19916;-55
2022/08/06 13:22:27;;;;;;;;;;;17.90;99.90;;;;;;5032241;28;19947;-55
2022/08/06 13:25:11;;;;;;;;;;;17.90;99.90;;;;;;5031929;28;20436;-55
2022/08/06 13:27:37;;;;;;;;;;;17.90;99.90;;;;;;5032253;28;19905;-55
2022/08/06 13:30:07;;;;;;;;;;;17.90;99.90;;;;;;5032222;28;19923;-55
2022/08/06 13:32:33;;;;;;;;;;;17.90;99.90;;;;;;5031990;28;19909;-55
2022/08/06 13:34:59;;;;;;;;;;;18.00;99.90;;;;;;5031737;28;20340;-55
2022/08/06 13:37:41;;;;;;;;;;;18.00;99.90;;;;;;5031936;28;19934;-54
2022/08/06 13:40:07;;;;;;;;;;;18.00;99.90;;;;;;5031958;28;19947;-54
2022/08/06 13:42:32;;;;;;;;;;;18.10;99.90;;;;;;5031825;28;19992;-55
2022/08/06 13:44:58;;;;;;;;;;;18.10;99.90;;;;;;5031428;28;19955;-54
2022/08/06 13:47:28;;;;;;;;;;;18.10;99.90;;;;;;5031812;28;19909;-54
2022/08/06 13:49:53;;;;;;;;;;;18.10;99.90;;;;;;5012561;28;20340;-54
2022/08/06 13:52:19;;;;;;;;;;;18.20;99.90;;;;;;5031474;28;19956;-54
2022/08/06 13:54:44;;;;;;;;;;;18.20;99.90;;;;;;5031651;28;20454;-54
2022/08/06 13:57:11;;;;;;;;;;;18.30;99.90;;;;;;5031626;28;19924;-55
2022/08/06 13:59:37;;;;;;;;;;;18.30;99.90;;;;;;5031157;28;19971;-55
2022/08/06 14:02:03;;;;;;;;;;;18.30;99.90;;;;;;5031560;28;19909;-53
2022/08/06 14:04:29;;;;;;;;;;;18.40;99.90;;;;;;5031354;28;19904;-54
2022/08/06 14:06:56;;;;;;;;;;;18.30;99.90;;;;;;5031478;28;19955;-54
2022/08/06 14:09:23;;;;;;;;;;;18.40;99.90;;;;;;5031264;28;19913;-54
2022/08/06 14:11:50;;;;;;;;;;;18.30;99.90;;;;;;5031462;28;19928;-54
2022/08/06 14:14:15;;;;;;;;;;;18.40;99.90;;;;;;5031054;28;20326;-54
2022/08/06 14:16:41;;;;;;;;;;;18.50;99.90;;;;;;5031385;28;19981;-53
2022/08/06 14:19:07;;;;;;;;;;;18.50;99.90;;;;;;5031091;28;19935;-54
2022/08/06 14:21:32;;;;;;;;;;;18.50;99.90;;;;;;5031355;28;20008;-54
2022/08/06 14:23:58;;;;;;;;;;;18.60;99.90;;;;;;5022655;28;19909;-54
2022/08/06 14:26:24;;;;;;;;;;;18.60;99.90;;;;;;5030839;28;19905;-53
2022/08/06 14:28:50;;;;;;;;;;;18.70;99.90;;;;;;5030883;28;19917;-54